Tajima Maru — JD2342 — position and weather

sailwx.info

Track history (hours):
 
Tides and Currents Weather Stations Pressure Air Temp Water Temp Dewpoint Dewpoint Depression Visibility Wind Speed Wind Dir Waves Ship Positions

Tajima Maru

Last reported at 2017-Sep-25 06:43 UTC. Time now 2017-Sep-25 13:41 UTC.
Position N 34°33' E 135°27'.

Length 42 m; draft 3.2 m.

Type: Tug. MMSI: 431000118.

Date/timePositionNaut miles runAvg speedWind from/ knotsBaromVisibWave heightAir tempDewpointWater temp
2017-Sep-25 06:43N 34°33' E 135°27'1 5.3
2017-Sep-25 06:29N 34°33' E 135°25'1 1.4
2017-Sep-25 05:57N 34°33' E 135°24'0 0.1
2017-Sep-25 05:29N 34°33' E 135°24'0 0.0
2017-Sep-25 05:00N 34°33' E 135°24'0 0.1
2017-Sep-25 04:29N 34°33' E 135°24'0 0.1
2017-Sep-25 03:57N 34°33' E 135°24'0 0.3
2017-Sep-25 03:30N 34°33' E 135°24'0 0.1
2017-Sep-25 03:00N 34°33' E 135°24'0 0.2
2017-Sep-25 02:30N 34°33' E 135°24'0 0.1
2017-Sep-25 02:00N 34°33' E 135°24'0 0.3
2017-Sep-25 01:30N 34°33' E 135°24'0 0.1
2017-Sep-25 01:00N 34°33' E 135°24'0 0.1
2017-Sep-25 00:30N 34°33' E 135°24'0 0.3
2017-Sep-25 00:00N 34°33' E 135°24'0 0.2
2017-Sep-24 23:30N 34°33' E 135°24'0 0.0
2017-Sep-24 22:58N 34°33' E 135°24'0 0.0
2017-Sep-24 22:30N 34°33' E 135°24'0 0.0
2017-Sep-24 22:00N 34°33' E 135°24'0 0.0
2017-Sep-24 21:30N 34°33' E 135°24'0 0.1
2017-Sep-24 21:00N 34°33' E 135°24'0 0.1
2017-Sep-24 20:30N 34°33' E 135°24'0 0.1
2017-Sep-24 20:00N 34°33' E 135°24'0 0.1
2017-Sep-24 19:30N 34°33' E 135°24'0 0.1
2017-Sep-24 19:00N 34°33' E 135°24'0 0.0
2017-Sep-24 18:29N 34°33' E 135°24'0 0.1
2017-Sep-24 18:00N 34°33' E 135°24'0 0.1
2017-Sep-24 17:30N 34°33' E 135°24'0 0.1
2017-Sep-24 16:59N 34°33' E 135°24'0 0.3
2017-Sep-24 16:29N 34°33' E 135°24'0 0.2
2017-Sep-24 15:59N 34°33' E 135°24'0 0.0
2017-Sep-24 15:30N 34°33' E 135°24'0 0.0
2017-Sep-24 15:00N 34°33' E 135°24'0 0.1
2017-Sep-24 14:29N 34°33' E 135°24'0 0.1
2017-Sep-24 14:00N 34°33' E 135°24'0 0.1
2017-Sep-24 13:30N 34°33' E 135°24'0 0.0
2017-Sep-24 12:59N 34°33' E 135°24'0 0.1
2017-Sep-24 12:30N 34°33' E 135°24'0 0.3
2017-Sep-24 12:00N 34°33' E 135°24'0 0.0
2017-Sep-24 11:30N 34°33' E 135°24'0 0.2
2017-Sep-24 11:00N 34°33' E 135°24'0 0.1
2017-Sep-24 10:30N 34°33' E 135°24'0 0.1
2017-Sep-24 10:00N 34°33' E 135°24'0 0.1
2017-Sep-24 09:29N 34°33' E 135°24'0 0.1
2017-Sep-24 09:00N 34°33' E 135°24'0 0.2
2017-Sep-24 08:30N 34°33' E 135°24'0 0.1
2017-Sep-24 08:00N 34°33' E 135°24'0 0.0
2017-Sep-24 07:30N 34°33' E 135°24'0 0.0
2017-Sep-24 07:00N 34°33' E 135°24'0 0.1
2017-Sep-24 06:30N 34°33' E 135°24'0 0.1
2017-Sep-24 06:00N 34°33' E 135°24'0 0.1
2017-Sep-24 05:30N 34°33' E 135°24'0 0.1
2017-Sep-24 05:00N 34°33' E 135°24'0 0.1
2017-Sep-24 04:30N 34°33' E 135°24'0 0.2
2017-Sep-24 04:00N 34°33' E 135°24'0 0.2
2017-Sep-24 03:29N 34°33' E 135°24'0 0.3
2017-Sep-24 03:00N 34°33' E 135°24'0 0.0
2017-Sep-24 02:30N 34°33' E 135°24'3 3.6
2017-Sep-24 01:34N 34°33' E 135°20'0 3.1
2017-Sep-24 01:30N 34°33' E 135°20'5 9.4
2017-Sep-24 01:00N 34°31' E 135°15'2212.7
2017-Sep-23 23:17N 34°14' E 134°59'311.3
2017-Sep-23 23:00N 34°11' E 134°59'2 3.4
2017-Sep-23 22:31N 34°12' E 135°00'4 8.5
2017-Sep-23 21:59N 34°16' E 135°03'1111.5
2017-Sep-23 21:03N 34°25' E 135°10'113.7
2017-Sep-23 20:58N 34°26' E 135°11'613.3
2017-Sep-23 20:30N 34°30' E 135°17'712.9
2017-Sep-23 19:57N 34°33' E 135°24'0 0.0
2017-Sep-22 01:56N 34°34' E 135°24'2 0.9
2017-Sep-21 23:39N 34°33' E 135°27'1 3.6
2017-Sep-21 23:30N 34°33' E 135°26'1 1.0
2017-Sep-21 22:32N 34°33' E 135°25'1 3.7
2017-Sep-21 22:22N 34°33' E 135°25'3 7.3
2017-Sep-21 22:00N 34°34' E 135°22'0 0.5
2017-Sep-21 21:23N 34°34' E 135°22'410.0
2017-Sep-21 20:59N 34°33' E 135°27'0 0.2
2017-Sep-21 20:29N 34°33' E 135°27'0 0.0
2017-Sep-21 07:33N 34°33' E 135°27'0 7.6
2017-Sep-21 07:29N 34°33' E 135°26'611.1
2017-Sep-21 06:59N 34°34' E 135°19'612.5
2017-Sep-21 06:30N 34°35' E 135°12'713.9
2017-Sep-21 06:00N 34°36' E 135°04'8 0.7
2017-Sep-20 19:09N 34°37' E 134°55'512.4
2017-Sep-20 18:43N 34°37' E 135°01'210.0
2017-Sep-20 18:30N 34°36' E 135°04'612.5
2017-Sep-20 18:00N 34°35' E 135°11'713.6
2017-Sep-20 17:30N 34°34' E 135°19'611.9
2017-Sep-20 17:00N 34°33' E 135°26'0 0.6
2017-Sep-20 16:27N 34°33' E 135°27'0 0.0
2017-Sep-20 07:19N 34°33' E 135°26'0 1.3
2017-Sep-20 07:00N 34°34' E 135°26'0 0.1
2017-Sep-20 06:30N 34°34' E 135°26'0 0.6
2017-Sep-20 06:00N 34°33' E 135°26'2 4.8
2017-Sep-20 05:30N 34°33' E 135°23'2 4.6
2017-Sep-20 05:01N 34°34' E 135°20'1 2.8
2017-Sep-20 04:30N 34°34' E 135°22'4 2.6
2017-Sep-20 02:56N 34°33' E 135°27'0 0.0
2017-Sep-20 02:25N 34°33' E 135°27'0 0.0
2017-Sep-20 01:04N 34°33' E 135°27'0 0.0
2017-Sep-19 23:21N 34°33' E 135°27'0 0.1
2017-Sep-19 22:37N 34°33' E 135°27'1 7.7
2017-Sep-19 22:30N 34°33' E 135°25'3 5.2
2017-Sep-19 21:56N 34°31' E 135°24'1 2.1
2017-Sep-19 21:29N 34°32' E 135°24'0 0.0
2017-Sep-19 20:39N 34°32' E 135°24'0 0.2
2017-Sep-19 20:24N 34°32' E 135°24'3 6.4
2017-Sep-19 20:00N 34°33' E 135°26'0 0.0
2017-Sep-19 06:17N 34°33' E 135°27'2 8.2
2017-Sep-19 05:59N 34°34' E 135°24'4 7.6
2017-Sep-19 05:30N 34°38' E 135°25'1 2.6
2017-Sep-19 05:00N 34°38' E 135°23'2 3.1
2017-Sep-19 04:25N 34°36' E 135°24'0 0.1
2017-Sep-19 03:52N 34°36' E 135°24'0 0.0
2017-Sep-19 03:20N 34°36' E 135°24'2 5.0
2017-Sep-19 03:00N 34°38' E 135°23'1 2.9
2017-Sep-19 02:30N 34°39' E 135°24'1 2.9
2017-Sep-19 02:00N 34°38' E 135°23'5 8.1
2017-Sep-19 01:21N 34°33' E 135°27'0 0.0
2017-Sep-18 23:35N 34°33' E 135°27'0 0.0
2017-Sep-18 23:21N 34°33' E 135°27'0 0.0
2017-Sep-18 22:59N 34°33' E 135°27'0 0.0
2017-Sep-18 22:15N 34°33' E 135°27'0 0.0
2017-Sep-18 21:59N 34°33' E 135°27'0 0.0
2017-Sep-18 21:28N 34°33' E 135°27'0 0.0
2017-Sep-18 21:00N 34°33' E 135°27'0 0.0
2017-Sep-18 20:30N 34°33' E 135°27'0 0.0
2017-Sep-18 19:59N 34°33' E 135°27'0 0.0
2017-Sep-18 19:30N 34°33' E 135°27'0 0.0
2017-Sep-18 18:59N 34°33' E 135°27'0 0.0
2017-Sep-18 18:30N 34°33' E 135°27'0 0.0
2017-Sep-18 18:00N 34°33' E 135°27'0 0.0
2017-Sep-18 17:30N 34°33' E 135°27'0 0.0
2017-Sep-18 17:00N 34°33' E 135°27'0 0.0
2017-Sep-18 16:30N 34°33' E 135°27'0 0.0
2017-Sep-18 16:00N 34°33' E 135°27'0 0.0
2017-Sep-18 15:30N 34°33' E 135°27'0 0.0
2017-Sep-18 15:00N 34°33' E 135°27'0 0.0
2017-Sep-18 14:30N 34°33' E 135°27'0 0.0
2017-Sep-18 14:00N 34°33' E 135°27'0 0.0
2017-Sep-18 13:30N 34°33' E 135°27'0 0.0
2017-Sep-18 13:00N 34°33' E 135°27'0 0.0
2017-Sep-18 12:28N 34°33' E 135°27'0 0.0
2017-Sep-18 11:53N 34°33' E 135°27'0 0.0
2017-Sep-18 11:00N 34°33' E 135°27'0 0.0
2017-Sep-18 10:20N 34°33' E 135°27'0 0.0
2017-Sep-18 10:00N 34°33' E 135°27'0 0.0
2017-Sep-18 09:30N 34°33' E 135°27'0 0.0
2017-Sep-18 08:57N 34°33' E 135°27'0 0.0
2017-Sep-18 08:30N 34°33' E 135°27'0 0.0
2017-Sep-18 07:59N 34°33' E 135°27'0 0.0
2017-Sep-18 07:30N 34°33' E 135°27'0 0.0
2017-Sep-18 06:52N 34°33' E 135°27'0 0.0
2017-Sep-18 06:15N 34°33' E 135°27'0 0.0
2017-Sep-18 05:51N 34°33' E 135°27'0 0.0
2017-Sep-18 05:24N 34°33' E 135°27'0 0.0
2017-Sep-18 04:59N 34°33' E 135°27'0 0.0
2017-Sep-18 04:25N 34°33' E 135°27'0 0.0
2017-Sep-18 03:56N 34°33' E 135°27'0 0.0
2017-Sep-18 03:30N 34°33' E 135°27'0 0.0
2017-Sep-18 03:00N 34°33' E 135°27'0 0.0
2017-Sep-18 02:27N 34°33' E 135°27'0 0.0
2017-Sep-18 02:00N 34°33' E 135°27'0 0.0
2017-Sep-18 01:30N 34°33' E 135°27'0 0.0
2017-Sep-18 00:58N 34°33' E 135°27'0 0.0
2017-Sep-18 00:29N 34°33' E 135°27'0 0.0
2017-Sep-18 00:00N 34°33' E 135°27'0 0.0
2017-Sep-17 23:29N 34°33' E 135°27'0 0.0
2017-Sep-17 22:58N 34°33' E 135°27'0 0.0
2017-Sep-17 22:29N 34°33' E 135°27'0 0.0
2017-Sep-17 21:58N 34°33' E 135°27'0 0.0
2017-Sep-17 21:29N 34°33' E 135°27'0 0.0
2017-Sep-17 20:17N 34°33' E 135°27'0 0.0
2017-Sep-17 19:48N 34°33' E 135°27'0 0.0
2017-Sep-17 18:59N 34°33' E 135°27'0 0.0
2017-Sep-17 18:26N 34°33' E 135°27'0 0.0
2017-Sep-17 17:55N 34°33' E 135°27'0 0.0
2017-Sep-17 16:39N 34°33' E 135°27'0 0.0
2017-Sep-17 15:30N 34°33' E 135°27'0 0.0
2017-Sep-17 14:03N 34°33' E 135°27'0 0.0
2017-Sep-17 13:58N 34°33' E 135°27'0 0.0
2017-Sep-17 12:54N 34°33' E 135°27'0 0.0
2017-Sep-17 12:28N 34°33' E 135°27'0 0.0
2017-Sep-17 12:00N 34°33' E 135°27'0 0.0
2017-Sep-17 11:30N 34°33' E 135°27'0 0.0
2017-Sep-17 10:59N 34°33' E 135°27'0 0.0
2017-Sep-17 10:29N 34°33' E 135°27'0 0.0
2017-Sep-17 10:00N 34°33' E 135°27'0 0.0
2017-Sep-17 09:30N 34°33' E 135°27'0 0.0
2017-Sep-17 09:00N 34°33' E 135°27'0 0.0
2017-Sep-17 08:30N 34°33' E 135°27'0 0.0
2017-Sep-17 00:28N 34°33' E 135°27'3 5.9
2017-Sep-16 23:52N 34°31' E 135°23'0 0.7
2017-Sep-16 23:23N 34°31' E 135°23'2 5.5
2017-Sep-16 22:59N 34°33' E 135°24'2 3.2
2017-Sep-16 22:15N 34°33' E 135°27'0 0.0
2017-Sep-16 10:25N 34°33' E 135°27'511.3
2017-Sep-16 10:00N 34°34' E 135°21'713.4
2017-Sep-16 09:30N 34°34' E 135°13'713.2
2017-Sep-16 09:00N 34°35' E 135°05'4 0.4
2017-Sep-15 22:40N 34°37' E 135°01'213.1
2017-Sep-15 22:30N 34°36' E 135°04'613.1
2017-Sep-15 22:00N 34°35' E 135°11'713.8
2017-Sep-15 21:30N 34°34' E 135°20'511.1
2017-Sep-15 21:00N 34°33' E 135°26'  
Track history (hours):
 
Tides and Currents Weather Stations Pressure Air Temp Water Temp Dewpoint Dewpoint Depression Visibility Wind Speed Wind Dir Waves Ship Positions

Tajima Maru

Last reported at 2017-Sep-25 06:43 UTC. Time now 2017-Sep-25 13:41 UTC.
Position N 34°33' E 135°27'.

Length 42 m; draft 3.2 m.

Type: Tug. MMSI: 431000118.

Date/timePositionNaut miles runAvg speedWind from/ knotsBaromVisibWave heightAir tempDewpointWater temp
2017-Sep-25 06:43N 34°33' E 135°27'1 5.3
2017-Sep-25 06:29N 34°33' E 135°25'1 1.4
2017-Sep-25 05:57N 34°33' E 135°24'0 0.1
2017-Sep-25 05:29N 34°33' E 135°24'0 0.0
2017-Sep-25 05:00N 34°33' E 135°24'0 0.1
2017-Sep-25 04:29N 34°33' E 135°24'0 0.1
2017-Sep-25 03:57N 34°33' E 135°24'0 0.3
2017-Sep-25 03:30N 34°33' E 135°24'0 0.1
2017-Sep-25 03:00N 34°33' E 135°24'0 0.2
2017-Sep-25 02:30N 34°33' E 135°24'0 0.1
2017-Sep-25 02:00N 34°33' E 135°24'0 0.3
2017-Sep-25 01:30N 34°33' E 135°24'0 0.1
2017-Sep-25 01:00N 34°33' E 135°24'0 0.1
2017-Sep-25 00:30N 34°33' E 135°24'0 0.3
2017-Sep-25 00:00N 34°33' E 135°24'0 0.2
2017-Sep-24 23:30N 34°33' E 135°24'0 0.0
2017-Sep-24 22:58N 34°33' E 135°24'0 0.0
2017-Sep-24 22:30N 34°33' E 135°24'0 0.0
2017-Sep-24 22:00N 34°33' E 135°24'0 0.0
2017-Sep-24 21:30N 34°33' E 135°24'0 0.1
2017-Sep-24 21:00N 34°33' E 135°24'0 0.1
2017-Sep-24 20:30N 34°33' E 135°24'0 0.1
2017-Sep-24 20:00N 34°33' E 135°24'0 0.1
2017-Sep-24 19:30N 34°33' E 135°24'0 0.1
2017-Sep-24 19:00N 34°33' E 135°24'0 0.0
2017-Sep-24 18:29N 34°33' E 135°24'0 0.1
2017-Sep-24 18:00N 34°33' E 135°24'0 0.1
2017-Sep-24 17:30N 34°33' E 135°24'0 0.1
2017-Sep-24 16:59N 34°33' E 135°24'0 0.3
2017-Sep-24 16:29N 34°33' E 135°24'0 0.2
2017-Sep-24 15:59N 34°33' E 135°24'0 0.0
2017-Sep-24 15:30N 34°33' E 135°24'0 0.0
2017-Sep-24 15:00N 34°33' E 135°24'0 0.1
2017-Sep-24 14:29N 34°33' E 135°24'0 0.1
2017-Sep-24 14:00N 34°33' E 135°24'0 0.1
2017-Sep-24 13:30N 34°33' E 135°24'0 0.0
2017-Sep-24 12:59N 34°33' E 135°24'0 0.1
2017-Sep-24 12:30N 34°33' E 135°24'0 0.3
2017-Sep-24 12:00N 34°33' E 135°24'0 0.0
2017-Sep-24 11:30N 34°33' E 135°24'0 0.2
2017-Sep-24 11:00N 34°33' E 135°24'0 0.1
2017-Sep-24 10:30N 34°33' E 135°24'0 0.1
2017-Sep-24 10:00N 34°33' E 135°24'0 0.1
2017-Sep-24 09:29N 34°33' E 135°24'0 0.1
2017-Sep-24 09:00N 34°33' E 135°24'0 0.2
2017-Sep-24 08:30N 34°33' E 135°24'0 0.1
2017-Sep-24 08:00N 34°33' E 135°24'0 0.0
2017-Sep-24 07:30N 34°33' E 135°24'0 0.0
2017-Sep-24 07:00N 34°33' E 135°24'0 0.1
2017-Sep-24 06:30N 34°33' E 135°24'0 0.1
2017-Sep-24 06:00N 34°33' E 135°24'0 0.1
2017-Sep-24 05:30N 34°33' E 135°24'0 0.1
2017-Sep-24 05:00N 34°33' E 135°24'0 0.1
2017-Sep-24 04:30N 34°33' E 135°24'0 0.2
2017-Sep-24 04:00N 34°33' E 135°24'0 0.2
2017-Sep-24 03:29N 34°33' E 135°24'0 0.3
2017-Sep-24 03:00N 34°33' E 135°24'0 0.0
2017-Sep-24 02:30N 34°33' E 135°24'3 3.6
2017-Sep-24 01:34N 34°33' E 135°20'0 3.1
2017-Sep-24 01:30N 34°33' E 135°20'5 9.4
2017-Sep-24 01:00N 34°31' E 135°15'2212.7
2017-Sep-23 23:17N 34°14' E 134°59'311.3
2017-Sep-23 23:00N 34°11' E 134°59'2 3.4
2017-Sep-23 22:31N 34°12' E 135°00'4 8.5
2017-Sep-23 21:59N 34°16' E 135°03'1111.5
2017-Sep-23 21:03N 34°25' E 135°10'113.7
2017-Sep-23 20:58N 34°26' E 135°11'613.3
2017-Sep-23 20:30N 34°30' E 135°17'712.9
2017-Sep-23 19:57N 34°33' E 135°24'0 0.0
2017-Sep-22 01:56N 34°34' E 135°24'2 0.9
2017-Sep-21 23:39N 34°33' E 135°27'1 3.6
2017-Sep-21 23:30N 34°33' E 135°26'1 1.0
2017-Sep-21 22:32N 34°33' E 135°25'1 3.7
2017-Sep-21 22:22N 34°33' E 135°25'3 7.3
2017-Sep-21 22:00N 34°34' E 135°22'0 0.5
2017-Sep-21 21:23N 34°34' E 135°22'410.0
2017-Sep-21 20:59N 34°33' E 135°27'0 0.2
2017-Sep-21 20:29N 34°33' E 135°27'0 0.0
2017-Sep-21 07:33N 34°33' E 135°27'0 7.6
2017-Sep-21 07:29N 34°33' E 135°26'611.1
2017-Sep-21 06:59N 34°34' E 135°19'612.5
2017-Sep-21 06:30N 34°35' E 135°12'713.9
2017-Sep-21 06:00N 34°36' E 135°04'8 0.7
2017-Sep-20 19:09N 34°37' E 134°55'512.4
2017-Sep-20 18:43N 34°37' E 135°01'210.0
2017-Sep-20 18:30N 34°36' E 135°04'612.5
2017-Sep-20 18:00N 34°35' E 135°11'713.6
2017-Sep-20 17:30N 34°34' E 135°19'611.9
2017-Sep-20 17:00N 34°33' E 135°26'0 0.6
2017-Sep-20 16:27N 34°33' E 135°27'0 0.0
2017-Sep-20 07:19N 34°33' E 135°26'0 1.3
2017-Sep-20 07:00N 34°34' E 135°26'0 0.1
2017-Sep-20 06:30N 34°34' E 135°26'0 0.6
2017-Sep-20 06:00N 34°33' E 135°26'2 4.8
2017-Sep-20 05:30N 34°33' E 135°23'2 4.6
2017-Sep-20 05:01N 34°34' E 135°20'1 2.8
2017-Sep-20 04:30N 34°34' E 135°22'4 2.6
2017-Sep-20 02:56N 34°33' E 135°27'0 0.0
2017-Sep-20 02:25N 34°33' E 135°27'0 0.0
2017-Sep-20 01:04N 34°33' E 135°27'0 0.0
2017-Sep-19 23:21N 34°33' E 135°27'0 0.1
2017-Sep-19 22:37N 34°33' E 135°27'1 7.7
2017-Sep-19 22:30N 34°33' E 135°25'3 5.2
2017-Sep-19 21:56N 34°31' E 135°24'1 2.1
2017-Sep-19 21:29N 34°32' E 135°24'0 0.0
2017-Sep-19 20:39N 34°32' E 135°24'0 0.2
2017-Sep-19 20:24N 34°32' E 135°24'3 6.4
2017-Sep-19 20:00N 34°33' E 135°26'0 0.0
2017-Sep-19 06:17N 34°33' E 135°27'2 8.2
2017-Sep-19 05:59N 34°34' E 135°24'4 7.6
2017-Sep-19 05:30N 34°38' E 135°25'1 2.6
2017-Sep-19 05:00N 34°38' E 135°23'2 3.1
2017-Sep-19 04:25N 34°36' E 135°24'0 0.1
2017-Sep-19 03:52N 34°36' E 135°24'0 0.0
2017-Sep-19 03:20N 34°36' E 135°24'2 5.0
2017-Sep-19 03:00N 34°38' E 135°23'1 2.9
2017-Sep-19 02:30N 34°39' E 135°24'1 2.9
2017-Sep-19 02:00N 34°38' E 135°23'5 8.1
2017-Sep-19 01:21N 34°33' E 135°27'0 0.0
2017-Sep-18 23:35N 34°33' E 135°27'0 0.0
2017-Sep-18 23:21N 34°33' E 135°27'0 0.0
2017-Sep-18 22:59N 34°33' E 135°27'0 0.0
2017-Sep-18 22:15N 34°33' E 135°27'0 0.0
2017-Sep-18 21:59N 34°33' E 135°27'0 0.0
2017-Sep-18 21:28N 34°33' E 135°27'0 0.0
2017-Sep-18 21:00N 34°33' E 135°27'0 0.0
2017-Sep-18 20:30N 34°33' E 135°27'0 0.0
2017-Sep-18 19:59N 34°33' E 135°27'0 0.0
2017-Sep-18 19:30N 34°33' E 135°27'0 0.0
2017-Sep-18 18:59N 34°33' E 135°27'0 0.0
2017-Sep-18 18:30N 34°33' E 135°27'0 0.0
2017-Sep-18 18:00N 34°33' E 135°27'0 0.0
2017-Sep-18 17:30N 34°33' E 135°27'0 0.0
2017-Sep-18 17:00N 34°33' E 135°27'0 0.0
2017-Sep-18 16:30N 34°33' E 135°27'0 0.0
2017-Sep-18 16:00N 34°33' E 135°27'0 0.0
2017-Sep-18 15:30N 34°33' E 135°27'0 0.0
2017-Sep-18 15:00N 34°33' E 135°27'0 0.0
2017-Sep-18 14:30N 34°33' E 135°27'0 0.0
2017-Sep-18 14:00N 34°33' E 135°27'0 0.0
2017-Sep-18 13:30N 34°33' E 135°27'0 0.0
2017-Sep-18 13:00N 34°33' E 135°27'0 0.0
2017-Sep-18 12:28N 34°33' E 135°27'0 0.0
2017-Sep-18 11:53N 34°33' E 135°27'0 0.0
2017-Sep-18 11:00N 34°33' E 135°27'0 0.0
2017-Sep-18 10:20N 34°33' E 135°27'0 0.0
2017-Sep-18 10:00N 34°33' E 135°27'0 0.0
2017-Sep-18 09:30N 34°33' E 135°27'0 0.0
2017-Sep-18 08:57N 34°33' E 135°27'0 0.0
2017-Sep-18 08:30N 34°33' E 135°27'0 0.0
2017-Sep-18 07:59N 34°33' E 135°27'0 0.0
2017-Sep-18 07:30N 34°33' E 135°27'0 0.0
2017-Sep-18 06:52N 34°33' E 135°27'0 0.0
2017-Sep-18 06:15N 34°33' E 135°27'0 0.0
2017-Sep-18 05:51N 34°33' E 135°27'0 0.0
2017-Sep-18 05:24N 34°33' E 135°27'0 0.0
2017-Sep-18 04:59N 34°33' E 135°27'0 0.0
2017-Sep-18 04:25N 34°33' E 135°27'0 0.0
2017-Sep-18 03:56N 34°33' E 135°27'0 0.0
2017-Sep-18 03:30N 34°33' E 135°27'0 0.0
2017-Sep-18 03:00N 34°33' E 135°27'0 0.0
2017-Sep-18 02:27N 34°33' E 135°27'0 0.0
2017-Sep-18 02:00N 34°33' E 135°27'0 0.0
2017-Sep-18 01:30N 34°33' E 135°27'0 0.0
2017-Sep-18 00:58N 34°33' E 135°27'0 0.0
2017-Sep-18 00:29N 34°33' E 135°27'0 0.0
2017-Sep-18 00:00N 34°33' E 135°27'0 0.0
2017-Sep-17 23:29N 34°33' E 135°27'0 0.0
2017-Sep-17 22:58N 34°33' E 135°27'0 0.0
2017-Sep-17 22:29N 34°33' E 135°27'0 0.0
2017-Sep-17 21:58N 34°33' E 135°27'0 0.0
2017-Sep-17 21:29N 34°33' E 135°27'0 0.0
2017-Sep-17 20:17N 34°33' E 135°27'0 0.0
2017-Sep-17 19:48N 34°33' E 135°27'0 0.0
2017-Sep-17 18:59N 34°33' E 135°27'0 0.0
2017-Sep-17 18:26N 34°33' E 135°27'0 0.0
2017-Sep-17 17:55N 34°33' E 135°27'0 0.0
2017-Sep-17 16:39N 34°33' E 135°27'0 0.0
2017-Sep-17 15:30N 34°33' E 135°27'0 0.0
2017-Sep-17 14:03N 34°33' E 135°27'0 0.0
2017-Sep-17 13:58N 34°33' E 135°27'0 0.0
2017-Sep-17 12:54N 34°33' E 135°27'0 0.0
2017-Sep-17 12:28N 34°33' E 135°27'0 0.0
2017-Sep-17 12:00N 34°33' E 135°27'0 0.0
2017-Sep-17 11:30N 34°33' E 135°27'0 0.0
2017-Sep-17 10:59N 34°33' E 135°27'0 0.0
2017-Sep-17 10:29N 34°33' E 135°27'0 0.0
2017-Sep-17 10:00N 34°33' E 135°27'0 0.0
2017-Sep-17 09:30N 34°33' E 135°27'0 0.0
2017-Sep-17 09:00N 34°33' E 135°27'0 0.0
2017-Sep-17 08:30N 34°33' E 135°27'0 0.0
2017-Sep-17 00:28N 34°33' E 135°27'3 5.9
2017-Sep-16 23:52N 34°31' E 135°23'0 0.7
2017-Sep-16 23:23N 34°31' E 135°23'2 5.5
2017-Sep-16 22:59N 34°33' E 135°24'2 3.2
2017-Sep-16 22:15N 34°33' E 135°27'0 0.0
2017-Sep-16 10:25N 34°33' E 135°27'511.3
2017-Sep-16 10:00N 34°34' E 135°21'713.4
2017-Sep-16 09:30N 34°34' E 135°13'713.2
2017-Sep-16 09:00N 34°35' E 135°05'4 0.4
2017-Sep-15 22:40N 34°37' E 135°01'213.1
2017-Sep-15 22:30N 34°36' E 135°04'613.1
2017-Sep-15 22:00N 34°35' E 135°11'713.8
2017-Sep-15 21:30N 34°34' E 135°20'511.1
2017-Sep-15 21:00N 34°33' E 135°26'  

Dump ship's entire track history